Accueil
METAR-TAF:

METAR-TAF

Aéroports :

Pyongyang, Corée du Nord

Aéroport international de Sunan

latitude: 39-02N, longitude: 125-47E, altitude: 36 m

METAR: absent

Heure: 08:38 (00:08 UTC)

Prévision

Le bulletin a été fait il y a 2 heures et 58 minutes, à 21:10 UTC
Prévision valable du 23 à 00 UTC au 23 à 24 UTC
Vent 6 kt de nord-ouest
Visibilité 10 km ou plus
pas de nuages en-dessous de 1500 mètres et pas de cumulonimbus.
Temporairement
du 23 à 00 UTC au 23 à 04 UTC
Visibilité: 4000 m
Ciel couvert à une hauteur de 2300 ft
neige faible

TAF: ZKPY 222110Z 2300/2324 32003MPS CAVOK TX03/2307Z TNM04/2322Z TEMPO 2300/2304 4000 -SN OVC023

Observations et prévisions météorologiques de plus de 4000 aéroports (messages METAR et TAF).

Les stations disponibles sont représentées par des disques jaunes et rouges sur la carte.

Passer la souris dessus pour voir le nom de la station.

Cliquer dessus pour voir les observations et prévisions météorologiques.

Pour changer de carte: cliquez sur les boutons verts avec une croix noire pour zoomer, sur le bouton vert avec un tiret pour effectuer un zoom arrière, ou sur les flèches vertes pour les cartes adjacentes.


METAR-TAF: